createdAt,value
2022-08-07T00:02:41.198Z,12.60
2022-08-07T00:05:04.028Z,12.60
2022-08-07T00:07:40.891Z,12.60
2022-08-07T00:10:26.580Z,12.70
2022-08-07T00:13:01.265Z,12.60
2022-08-07T00:15:37.812Z,12.60
2022-08-07T00:18:19.647Z,12.50
2022-08-07T00:20:50.395Z,12.50
2022-08-07T00:23:21.065Z,12.40
2022-08-07T00:25:58.944Z,12.40
2022-08-07T00:28:33.367Z,12.50
2022-08-07T00:31:06.249Z,12.60
2022-08-07T00:33:43.170Z,12.50
2022-08-07T00:36:16.926Z,12.40
2022-08-07T00:38:45.281Z,12.40
2022-08-07T00:41:14.722Z,12.30
2022-08-07T00:44:01.990Z,12.30
2022-08-07T00:46:33.951Z,12.30
2022-08-07T00:49:03.723Z,12.30
2022-08-07T00:51:58.150Z,11.90
2022-08-07T00:54:22.270Z,12.20
2022-08-07T00:56:52.162Z,12.20
2022-08-07T00:59:35.232Z,12.00
2022-08-07T01:02:09.005Z,12.00
2022-08-07T01:04:50.662Z,12.10
2022-08-07T01:07:22.345Z,12.00
2022-08-07T01:10:06.557Z,12.00
2022-08-07T01:12:53.253Z,12.00
2022-08-07T01:16:00.484Z,12.00
2022-08-07T01:18:16.952Z,12.30
2022-08-07T01:20:59.500Z,12.00
2022-08-07T01:23:35.383Z,13.00
2022-08-07T01:26:12.252Z,12.00
2022-08-07T01:28:46.326Z,12.00
2022-08-07T01:31:19.996Z,12.00
2022-08-07T01:33:55.383Z,11.90
2022-08-07T01:36:34.062Z,11.80
2022-08-07T01:39:10.692Z,11.70
2022-08-07T01:42:07.403Z,11.70
2022-08-07T01:44:29.381Z,11.60
2022-08-07T01:47:01.164Z,13.10
2022-08-07T01:49:46.041Z,11.50
2022-08-07T01:52:25.069Z,11.40
2022-08-07T01:54:58.905Z,11.30
2022-08-07T01:58:01.572Z,11.30
2022-08-07T02:00:28.571Z,11.30
2022-08-07T02:03:18.298Z,11.20
2022-08-07T02:06:00.072Z,11.10
2022-08-07T02:08:35.496Z,11.10
2022-08-07T02:11:07.144Z,11.10
2022-08-07T02:13:57.478Z,11.10
2022-08-07T02:16:33.649Z,11.10
2022-08-07T02:19:05.640Z,11.00
2022-08-07T02:21:58.898Z,11.90
2022-08-07T02:24:30.095Z,11.10
2022-08-07T02:27:02.802Z,11.10
2022-08-07T02:29:34.496Z,11.50
2022-08-07T02:32:14.116Z,11.10
2022-08-07T02:34:48.697Z,11.00
2022-08-07T02:37:21.699Z,11.00
2022-08-07T02:40:02.167Z,10.90
2022-08-07T02:42:43.772Z,10.90
2022-08-07T02:45:59.117Z,10.80
2022-08-07T02:48:05.221Z,10.80
2022-08-07T02:50:51.409Z,10.70
2022-08-07T02:53:27.274Z,10.80
2022-08-07T02:56:03.235Z,10.80
2022-08-07T02:58:39.833Z,10.80
2022-08-07T03:01:19.064Z,10.80
2022-08-07T03:04:07.725Z,10.30
2022-08-07T03:06:44.780Z,11.00
2022-08-07T03:09:43.345Z,11.00
2022-08-07T03:12:05.473Z,11.10
2022-08-07T03:14:37.181Z,11.00
2022-08-07T03:17:06.668Z,10.90
2022-08-07T03:19:37.584Z,10.90
2022-08-07T03:22:07.936Z,10.90
2022-08-07T03:24:48.493Z,10.80
2022-08-07T03:27:29.951Z,10.80
2022-08-07T03:30:03.764Z,10.80
2022-08-07T03:32:39.753Z,10.80
2022-08-07T03:35:26.295Z,10.70
2022-08-07T03:37:58.595Z,10.90
2022-08-07T03:40:35.991Z,10.70
2022-08-07T03:43:10.092Z,10.70
2022-08-07T03:45:47.877Z,10.60
2022-08-07T03:48:17.330Z,10.60
2022-08-07T03:50:56.214Z,10.60
2022-08-07T03:54:00.785Z,10.60
2022-08-07T03:56:33.060Z,10.70
2022-08-07T03:59:12.766Z,10.60
2022-08-07T04:01:46.279Z,10.70
2022-08-07T04:04:18.231Z,10.80
2022-08-07T04:06:50.910Z,10.80
2022-08-07T04:09:23.284Z,10.80
2022-08-07T04:12:20.804Z,10.90
2022-08-07T04:14:45.934Z,11.00
2022-08-07T04:17:20.987Z,11.00
2022-08-07T04:19:54.382Z,11.10
2022-08-07T04:22:28.494Z,11.20
2022-08-07T04:25:01.010Z,11.20
2022-08-07T04:27:35.795Z,11.40
2022-08-07T04:30:21.052Z,11.50
2022-08-07T04:32:58.226Z,11.70
2022-08-07T04:35:27.425Z,11.90
2022-08-07T04:38:07.931Z,12.10
2022-08-07T04:40:36.525Z,12.30
2022-08-07T04:44:10.452Z,12.40
2022-08-07T04:46:34.565Z,12.60
2022-08-07T04:49:24.709Z,12.70
2022-08-07T04:52:03.978Z,13.00
2022-08-07T04:54:41.831Z,13.20
2022-08-07T04:58:16.753Z,13.40
2022-08-07T05:00:41.856Z,13.90
2022-08-07T05:04:00.297Z,13.80
2022-08-07T05:06:20.490Z,13.90
2022-08-07T05:09:03.043Z,14.00
2022-08-07T05:11:57.262Z,14.20
2022-08-07T05:14:53.406Z,14.60
2022-08-07T05:17:50.132Z,14.60
2022-08-07T05:20:18.806Z,15.10
2022-08-07T05:22:52.815Z,15.50
2022-08-07T05:25:25.914Z,15.80
2022-08-07T05:28:20.852Z,16.10
2022-08-07T05:30:54.254Z,16.40
2022-08-07T05:33:24.792Z,16.60
2022-08-07T05:35:56.863Z,16.90
2022-08-07T05:39:01.264Z,16.90
2022-08-07T05:41:18.442Z,17.00
2022-08-07T05:44:08.344Z,17.30
2022-08-07T05:46:43.138Z,17.30
2022-08-07T05:49:14.338Z,17.40
2022-08-07T05:51:46.619Z,17.60
2022-08-07T05:54:31.178Z,17.60
2022-08-07T05:57:10.246Z,17.90
2022-08-07T05:59:58.061Z,18.20
2022-08-07T06:02:32.613Z,18.40
2022-08-07T06:05:06.839Z,18.40
2022-08-07T06:08:08.998Z,18.60
2022-08-07T06:10:30.082Z,18.90
2022-08-07T06:12:58.655Z,19.20
2022-08-07T06:15:40.425Z,19.30
2022-08-07T06:18:14.353Z,19.20
2022-08-07T06:20:50.511Z,19.60
2022-08-07T06:24:36.975Z,19.90
2022-08-07T06:26:27.567Z,20.20
2022-08-07T06:29:01.173Z,20.30
2022-08-07T06:31:46.996Z,20.00
2022-08-07T06:34:19.647Z,20.00
2022-08-07T06:36:51.876Z,20.00
2022-08-07T06:40:17.435Z,20.10
2022-08-07T06:42:33.115Z,20.30
2022-08-07T06:45:06.645Z,20.30
2022-08-07T06:47:56.934Z,20.10
2022-08-07T06:50:27.551Z,20.30
2022-08-07T06:53:04.209Z,20.40
2022-08-07T06:55:53.647Z,20.80
2022-08-07T06:58:27.552Z,21.20
2022-08-07T07:00:59.512Z,21.70
2022-08-07T07:03:48.852Z,22.00
2022-08-07T07:06:26.064Z,22.00
2022-08-07T07:08:54.797Z,22.50
2022-08-07T07:12:08.256Z,21.50
2022-08-07T07:14:19.196Z,21.50
2022-08-07T07:16:55.692Z,21.40
2022-08-07T07:19:55.087Z,21.60
2022-08-07T07:22:36.879Z,21.70
2022-08-07T07:26:33.238Z,21.60
2022-08-07T07:28:29.762Z,21.20
2022-08-07T07:31:12.087Z,21.30
2022-08-07T07:33:56.414Z,21.30
2022-08-07T07:36:32.177Z,21.60
2022-08-07T07:39:04.473Z,21.90
2022-08-07T07:41:50.341Z,22.10
2022-08-07T07:44:25.785Z,22.00
2022-08-07T07:54:22.112Z,21.80
2022-08-07T07:56:57.928Z,22.10
2022-08-07T07:59:52.931Z,22.50
2022-08-07T08:02:34.083Z,22.70
2022-08-07T08:05:11.365Z,22.70
2022-08-07T08:07:51.483Z,22.50
2022-08-07T08:10:35.554Z,22.60
2022-08-07T08:13:10.479Z,22.80
2022-08-07T08:15:58.932Z,23.10
2022-08-07T08:18:30.514Z,22.70
2022-08-07T08:21:03.193Z,23.00
2022-08-07T08:23:51.927Z,23.30
2022-08-07T08:26:40.387Z,23.00
2022-08-07T08:29:10.864Z,23.20
2022-08-07T08:31:58.759Z,23.60
2022-08-07T08:34:33.432Z,23.50
2022-08-07T08:37:04.356Z,23.10
2022-08-07T08:39:54.876Z,23.10
2022-08-07T08:42:40.410Z,23.60
2022-08-07T08:45:22.416Z,23.20
2022-08-07T08:48:10.746Z,23.10
2022-08-07T08:50:46.026Z,23.20
2022-08-07T08:53:25.717Z,23.60
2022-08-07T08:56:04.013Z,23.40
2022-08-07T08:58:47.552Z,23.00
2022-08-07T09:01:29.943Z,22.80
2022-08-07T09:04:26.086Z,22.90
2022-08-07T09:07:07.137Z,22.50
2022-08-07T09:09:59.624Z,22.40
2022-08-07T09:12:53.216Z,22.20
2022-08-07T09:16:20.482Z,22.00
2022-08-07T09:19:07.138Z,22.10
2022-08-07T09:24:28.740Z,21.90
2022-08-07T09:25:17.414Z,21.80
2022-08-07T09:28:02.027Z,21.60
2022-08-07T09:31:05.217Z,22.30
2022-08-07T09:34:00.101Z,22.60
2022-08-07T09:36:37.293Z,22.80
2022-08-07T09:39:54.984Z,23.40
2022-08-07T09:42:45.592Z,23.50
2022-08-07T09:47:50.786Z,24.00
2022-08-07T09:48:29.726Z,24.10
2022-08-07T09:52:16.253Z,23.60
2022-08-07T09:54:16.590Z,22.90
2022-08-07T09:57:30.954Z,23.10
2022-08-07T10:00:14.860Z,23.60
2022-08-07T10:04:03.182Z,24.10
2022-08-07T10:06:53.897Z,23.80
2022-08-07T10:10:00.935Z,24.20
2022-08-07T10:12:59.317Z,24.20
2022-08-07T10:15:55.599Z,23.10
2022-08-07T10:19:17.709Z,23.30
2022-08-07T10:22:15.404Z,24.20
2022-08-07T10:25:22.881Z,24.40
2022-08-07T10:28:17.805Z,24.50
2022-08-07T10:31:10.984Z,24.80
2022-08-07T10:34:15.365Z,24.80
2022-08-07T10:37:12.585Z,25.10
2022-08-07T10:40:09.083Z,24.90
2022-08-07T10:42:43.843Z,24.70
2022-08-07T10:45:57.503Z,25.20
2022-08-07T10:48:48.540Z,25.40
2022-08-07T10:52:01.728Z,25.30
2022-08-07T10:54:22.606Z,24.90
2022-08-07T10:57:10.548Z,25.20
2022-08-07T11:00:03.269Z,25.20
2022-08-07T11:02:41.269Z,25.50
2022-08-07T11:05:35.867Z,25.40
2022-08-07T11:08:46.976Z,25.40
2022-08-07T11:11:22.219Z,25.10
2022-08-07T11:14:43.662Z,25.20
2022-08-07T11:16:56.783Z,25.10
2022-08-07T11:19:41.078Z,24.90
2022-08-07T11:22:26.468Z,25.10
2022-08-07T11:25:12.084Z,25.50
2022-08-07T11:28:01.809Z,26.10
2022-08-07T11:30:43.924Z,26.30
2022-08-07T11:33:53.750Z,26.50
2022-08-07T11:36:35.585Z,26.50
2022-08-07T11:39:20.686Z,26.30
2022-08-07T11:42:04.316Z,26.30
2022-08-07T11:44:52.508Z,26.40
2022-08-07T11:47:59.196Z,26.20
2022-08-07T11:50:57.242Z,26.00
2022-08-07T11:54:01.462Z,25.70
2022-08-07T11:56:53.132Z,26.30
2022-08-07T12:00:12.505Z,26.40
2022-08-07T12:03:41.377Z,26.50
2022-08-07T12:06:37.878Z,26.20
2022-08-07T12:09:20.120Z,26.00
2022-08-07T12:12:10.647Z,25.70
2022-08-07T12:14:55.426Z,25.90
2022-08-07T12:17:59.447Z,26.00
2022-08-07T12:20:36.411Z,26.50
2022-08-07T12:24:04.951Z,26.70
2022-08-07T12:26:29.793Z,27.00
2022-08-07T12:29:11.271Z,26.70
2022-08-07T12:32:01.646Z,27.00
2022-08-07T12:34:40.258Z,27.10
2022-08-07T12:37:16.790Z,27.10
2022-08-07T12:39:55.088Z,27.10
2022-08-07T12:42:31.851Z,26.90
2022-08-07T12:45:10.109Z,26.90
2022-08-07T12:47:49.435Z,27.10
2022-08-07T12:50:39.213Z,27.60
2022-08-07T12:53:21.919Z,28.00
2022-08-07T12:56:04.142Z,28.50
2022-08-07T12:58:43.017Z,29.20
2022-08-07T13:01:40.718Z,29.00
2022-08-07T13:04:34.981Z,29.70
2022-08-07T13:08:14.624Z,29.60
2022-08-07T13:11:04.224Z,30.20
2022-08-07T13:13:50.346Z,30.90
2022-08-07T13:16:32.690Z,30.50
2022-08-07T13:19:35.206Z,30.00
2022-08-07T13:22:27.807Z,29.80
2022-08-07T13:25:05.936Z,30.60
2022-08-07T13:28:12.603Z,30.30
2022-08-07T13:30:41.425Z,30.70
2022-08-07T13:34:32.661Z,31.30
2022-08-07T13:36:25.718Z,31.60
2022-08-07T13:39:05.033Z,32.10
2022-08-07T13:41:47.593Z,32.80
2022-08-07T13:44:25.999Z,32.80
2022-08-07T13:47:00.927Z,31.90
2022-08-07T13:50:33.660Z,31.70
2022-08-07T13:52:39.589Z,32.30
2022-08-07T13:55:19.475Z,33.00
2022-08-07T13:58:28.180Z,33.00
2022-08-07T14:01:07.986Z,33.70
2022-08-07T14:04:07.370Z,33.50
2022-08-07T14:06:35.479Z,33.30
2022-08-07T14:09:06.761Z,32.80
2022-08-07T14:12:00.152Z,32.40
2022-08-07T14:14:35.608Z,32.90
2022-08-07T14:17:32.043Z,33.00
2022-08-07T14:20:41.091Z,33.20
2022-08-07T14:22:54.910Z,33.40
2022-08-07T14:25:39.315Z,33.20
2022-08-07T14:28:19.185Z,32.60
2022-08-07T14:30:52.211Z,32.00
2022-08-07T14:33:23.635Z,31.40
2022-08-07T14:35:58.518Z,31.60
2022-08-07T14:38:33.318Z,31.50
2022-08-07T14:41:14.829Z,30.50
2022-08-07T14:43:57.491Z,29.30
2022-08-07T14:52:28.027Z,27.80
2022-08-07T14:55:00.371Z,27.40
2022-08-07T14:57:54.729Z,26.90
2022-08-07T15:00:31.952Z,26.50
2022-08-07T15:06:03.739Z,26.20
2022-08-07T15:08:50.083Z,26.80
2022-08-07T15:11:53.849Z,28.10
2022-08-07T15:14:25.401Z,29.40
2022-08-07T15:17:04.192Z,29.90
2022-08-07T15:22:33.470Z,30.70
2022-08-07T15:25:19.340Z,30.20
2022-08-07T15:28:35.117Z,28.80
2022-08-07T15:31:04.922Z,28.60
2022-08-07T15:33:36.818Z,28.50
2022-08-07T15:36:09.100Z,28.30
2022-08-07T15:38:51.391Z,27.90
2022-08-07T15:42:43.702Z,27.40
2022-08-07T15:44:24.040Z,27.10
2022-08-07T15:47:08.618Z,26.90
2022-08-07T15:52:31.442Z,26.80
2022-08-07T15:55:11.589Z,26.60
2022-08-07T15:57:48.675Z,26.50
2022-08-07T16:00:31.469Z,26.40
2022-08-07T16:03:21.436Z,26.30
2022-08-07T16:05:57.871Z,26.20
2022-08-07T16:08:37.855Z,26.10
2022-08-07T16:11:26.902Z,25.90
2022-08-07T16:14:09.054Z,25.70
2022-08-07T16:17:15.457Z,25.60
2022-08-07T16:20:33.783Z,25.60
2022-08-07T16:23:53.969Z,25.40
2022-08-07T16:26:59.559Z,25.30
2022-08-07T16:30:11.639Z,25.10
2022-08-07T16:32:54.645Z,25.00
2022-08-07T16:35:58.469Z,25.00
2022-08-07T16:39:01.412Z,24.90
2022-08-07T16:42:28.944Z,24.70
2022-08-07T16:46:40.521Z,24.40
2022-08-07T16:49:04.013Z,24.40
2022-08-07T16:52:11.371Z,24.20
2022-08-07T16:55:11.429Z,24.10
2022-08-07T16:58:03.741Z,24.20
2022-08-07T17:00:45.755Z,24.10
2022-08-07T17:03:57.791Z,24.00
2022-08-07T17:06:57.986Z,23.90
2022-08-07T17:10:07.790Z,23.80
2022-08-07T17:12:44.414Z,23.80
2022-08-07T17:15:44.573Z,23.30
2022-08-07T17:18:29.134Z,23.60
2022-08-07T17:20:57.781Z,23.60
2022-08-07T17:23:44.681Z,23.70
2022-08-07T17:26:29.957Z,23.70
2022-08-07T17:30:15.929Z,23.50
2022-08-07T17:32:49.504Z,23.50
2022-08-07T17:35:51.776Z,23.40
2022-08-07T17:38:33.469Z,23.40
2022-08-07T17:42:04.633Z,23.10
2022-08-07T17:44:34.000Z,23.10
2022-08-07T17:47:37.739Z,23.00
2022-08-07T17:50:16.673Z,23.00
2022-08-07T17:52:58.973Z,23.00
2022-08-07T17:56:00.340Z,22.90
2022-08-07T17:58:46.295Z,22.90
2022-08-07T18:01:28.955Z,22.80
2022-08-07T18:04:22.486Z,22.80
2022-08-07T18:07:21.027Z,22.70
2022-08-07T18:10:05.806Z,22.60
2022-08-07T18:13:06.748Z,22.50
2022-08-07T18:16:00.167Z,22.40
2022-08-07T18:21:01.685Z,22.30
2022-08-07T18:21:51.900Z,22.20
2022-08-07T18:24:33.733Z,22.00
2022-08-07T18:27:38.451Z,21.90
2022-08-07T18:30:32.456Z,21.80
2022-08-07T18:34:37.918Z,21.70
2022-08-07T18:38:55.822Z,21.60
2022-08-07T18:40:42.453Z,21.50
2022-08-07T18:43:43.069Z,21.50
2022-08-07T18:46:27.520Z,21.50
2022-08-07T18:50:30.173Z,21.50
2022-08-07T18:52:40.834Z,21.40
2022-08-07T18:55:40.761Z,21.30
2022-08-07T18:58:55.822Z,21.20
2022-08-07T19:02:31.851Z,21.10
2022-08-07T19:04:54.711Z,21.00
2022-08-07T19:07:52.889Z,20.80
2022-08-07T19:10:31.871Z,20.70
2022-08-07T19:13:26.613Z,20.70
2022-08-07T19:17:00.646Z,20.50
2022-08-07T19:19:01.185Z,20.40
2022-08-07T19:21:56.967Z,20.40
2022-08-07T19:24:43.547Z,20.30
2022-08-07T19:28:30.898Z,20.30
2022-08-07T19:31:06.375Z,20.20
2022-08-07T19:33:08.224Z,20.00
2022-08-07T19:35:45.076Z,19.90
2022-08-07T19:38:20.664Z,19.70
2022-08-07T19:40:53.304Z,19.40
2022-08-07T19:43:43.387Z,19.30
2022-08-07T19:46:19.974Z,19.20
2022-08-07T19:48:57.106Z,19.00
2022-08-07T19:51:53.232Z,18.90
2022-08-07T19:54:34.121Z,18.80
2022-08-07T19:58:04.780Z,18.70
2022-08-07T20:00:10.075Z,18.60
2022-08-07T20:02:52.159Z,18.50
2022-08-07T20:05:28.195Z,18.40
2022-08-07T20:08:03.105Z,18.30
2022-08-07T20:10:54.767Z,18.30
2022-08-07T20:13:38.526Z,18.20
2022-08-07T20:16:15.936Z,18.10
2022-08-07T20:19:04.378Z,18.00
2022-08-07T20:21:46.842Z,17.90
2022-08-07T20:24:22.103Z,17.80
2022-08-07T20:26:56.329Z,17.80
2022-08-07T20:29:48.003Z,17.70
2022-08-07T20:32:25.675Z,17.70
2022-08-07T20:34:58.478Z,17.60
2022-08-07T20:37:37.083Z,17.50
2022-08-07T20:40:31.368Z,17.40
2022-08-07T20:43:09.460Z,17.30
2022-08-07T20:46:24.447Z,17.10
2022-08-07T20:48:38.174Z,17.10
2022-08-07T20:51:11.747Z,17.00
2022-08-07T20:54:02.882Z,16.90
2022-08-07T21:00:04.861Z,16.60
2022-08-07T21:02:35.818Z,16.60
2022-08-07T21:05:16.553Z,16.50
2022-08-07T21:07:51.075Z,16.40
2022-08-07T21:10:31.427Z,16.30
2022-08-07T21:13:06.547Z,16.30
2022-08-07T21:15:58.082Z,16.20
2022-08-07T21:18:34.234Z,16.10
2022-08-07T21:21:05.044Z,16.10
2022-08-07T21:23:50.582Z,16.00
2022-08-07T21:26:42.972Z,16.00
2022-08-07T21:29:19.220Z,15.90
2022-08-07T21:32:47.114Z,15.90
2022-08-07T21:35:03.825Z,15.90
2022-08-07T21:37:59.518Z,16.40
2022-08-07T21:40:41.166Z,15.80
2022-08-07T21:43:14.911Z,15.80
2022-08-07T21:46:10.420Z,15.80
2022-08-07T21:48:55.896Z,15.90
2022-08-07T21:51:51.070Z,15.80
2022-08-07T21:54:30.786Z,15.70
2022-08-07T21:57:31.505Z,15.70
2022-08-07T22:00:22.299Z,15.70
2022-08-07T22:03:03.497Z,15.60
2022-08-07T22:05:49.724Z,15.50
2022-08-07T22:08:23.255Z,15.50
2022-08-07T22:11:01.684Z,15.50
2022-08-07T22:13:52.740Z,15.50
2022-08-07T22:16:39.161Z,15.40
2022-08-07T22:19:29.342Z,15.50
2022-08-07T22:22:20.755Z,15.60
2022-08-07T22:25:08.430Z,15.60
2022-08-07T22:28:07.926Z,15.60
2022-08-07T22:30:53.086Z,15.70
2022-08-07T22:33:53.306Z,15.90
2022-08-07T22:36:48.604Z,15.90
2022-08-07T22:39:53.024Z,16.00
2022-08-07T22:42:54.123Z,16.00
2022-08-07T22:46:21.715Z,16.10
2022-08-07T22:48:56.194Z,16.20
2022-08-07T22:51:58.052Z,16.10
2022-08-07T22:55:17.086Z,16.20
2022-08-07T22:58:34.170Z,16.20
2022-08-07T23:01:49.764Z,16.10
2022-08-07T23:04:56.831Z,16.00
2022-08-07T23:07:49.120Z,16.50
2022-08-07T23:10:41.989Z,15.90
2022-08-07T23:13:49.279Z,15.90
2022-08-07T23:16:55.903Z,15.80
2022-08-07T23:20:04.222Z,15.80
2022-08-07T23:22:52.304Z,15.70
2022-08-07T23:25:41.548Z,15.60
2022-08-07T23:28:44.314Z,15.50
2022-08-07T23:32:49.386Z,15.50
2022-08-07T23:34:50.824Z,15.40
2022-08-07T23:38:01.161Z,15.30
2022-08-07T23:40:49.193Z,15.40
2022-08-07T23:44:07.570Z,15.30
2022-08-07T23:47:13.306Z,15.30
2022-08-07T23:50:30.393Z,15.30
2022-08-07T23:53:17.108Z,15.10
2022-08-07T23:56:01.696Z,15.10
2022-08-07T23:58:45.665Z,15.10
